• Join FlightAware (Why Join?)
  • Login
  • US Flag 
11:57PM EDT


 

Airport Tracker/Info


-or-


 

Live Flight TrackerFlight Track Log ✈ DLH187 ✈ 31-Jan-2014 ✈ EDDT / TXL - EDDF / FRA

Flight Track Log - Related Links

Times and Time Zones

All times are in EST time to prevent confusion due to time zone crossing. See the DLH187 flight status page for this flight to view local times or setup timezone preferences in your user account.

Time Position Orientation Groundspeed Altitude Reporting Facility
EST Latitude Longitude Course Direction KTS MPH feet Rate Location/Type
07:28AM 51.9263 12.0159 231° Southwest  Level Estimated
07:29AM 51.8551 11.8769 230° Southwest  Level Estimated
07:30AM 51.7837 11.7382 230° Southwest  Level Estimated
07:31AM 51.7211 11.6173 230° Southwest  Level Estimated
07:32AM 51.6584 11.4966 230° Southwest  Level Estimated
07:33AM 51.5955 11.3764 230° Southwest  Level Estimated
07:34AM 51.5326 11.2564 230° Southwest  Level Estimated
07:35AM 51.4695 11.1368 230° Southwest  Level Estimated
07:36AM 51.4063 11.0175 230° Southwest  Level Estimated
07:37AM 51.3430 10.8986 230° Southwest  Level Estimated
07:38AM 51.2795 10.7799 229° Southwest  Level Estimated
07:39AM 51.2160 10.6616 229° Southwest  Level Estimated
07:40AM 51.1523 10.5436 229° Southwest  Level Estimated
07:41AM 51.0885 10.4260 229° Southwest  Level Estimated
07:42AM 51.0246 10.3087 229° Southwest  Level Estimated
07:43AM 50.9605 10.1917 229° Southwest  Level Estimated
07:44AM 50.8964 10.0750 229° Southwest  Level Estimated
07:45AM 50.8321 9.9586 229° Southwest  Level Estimated
07:46AM 50.7677 9.8426 229° Southwest  Level Estimated
07:47AM 50.7033 9.7269 229° Southwest  Level Estimated
07:48AM 50.6386 9.6115 229° Southwest  Level Estimated
07:49AM 50.5739 9.4964 228° Southwest  Level Estimated
07:50AM 50.5091 9.3816 228° Southwest  Level Estimated
07:51AM 50.4441 9.2672 228° Southwest  Level Estimated
07:52AM 50.3791 9.1530 228° Southwest  Level Estimated
07:53AM 50.3139 9.0392 228° Southwest  Level Estimated
07:54AM 50.2486 8.9257 228° Southwest  Level Estimated
07:55AM 50.1832 8.8125 228° Southwest  Level Estimated
07:56AM 50.1177 8.6996 228° Southwest  Level Estimated
07:57AM 50.0521 8.5870 228° Southwest  Level Estimated
07:58AM 50.0264 8.5431 228° Southwest  Level Estimated
07:59AM 50.0264 8.5431 73° East  Level Estimated
08:00AM 50.0264 8.5431 73° East  Level Estimated
08:01AM 50.0264 8.5431 73° East  Level Estimated
08:02AM 50.0264 8.5431 73° East  Level Estimated
08:03AM 50.0264 8.5431 73° East  Level Estimated
08:04AM 50.0264 8.5431 73° East  Level Estimated
08:05AM 50.0264 8.5431 73° East  Level Estimated
08:06AM 50.0264 8.5431 73° East  Level Estimated
08:07AM 50.0264 8.5431 73° East  Level Estimated
08:08AM 50.0264 8.5431 73° East  Level Estimated
08:09AM 50.0264 8.5431 73° East  Level Estimated
08:10AM 50.0264 8.5431 73° East  Level Estimated
08:11AM 50.0264 8.5431 73° East  Level Estimated
08:12AM 50.0264 8.5431 73° East  Level Estimated
08:13AM 50.0264 8.5431 73° East  Level Estimated
08:14AM 50.0264 8.5431 73° East  Level Estimated
08:15AM 50.0264 8.5431 73° East  Level Estimated